LiveATC.Net - Listen to live air traffic control over the Internet!


ICAO: SBVT  IATA: VIX   Airport: Goiabeiras Airport
City: Vitoria
Country: Brazil   Continent: South America
SBVT METAR Weather: SBVT 161400Z 03004KT 9999 FEW028 SCT030 28/22 Q1016
SBVT Flight Activity (FlightAware)

SBVT Gnd/Twr/App
Feed Status: UP   Listeners: 0
Listen in your browser - HTML5 player (in browser, HTML5)
Click here to listen with your own player (launches your MP3 player)
Archive Access: SBVT Gnd/Twr/App
FacilityFrequency
SBVT Approach119.850
SBVT Ground121.950
SBVT Tower118.100

NOTICE

Unauthorized use prohibited. See LiveATC.net Terms of Service


Airport/ARTCC Code
Frequency Search
(e.g., 124.400, 128.75)
Site-wide search
 


Browse Feeds
Top 50 Feeds
Coverage Map
Bad Weather Areas

LiveATC FAQ
Offer LiveATC feed
Contact LiveATC.net
Press Inquiries

LiveATC on iPhone
LiveATC on Android

Windows Phone
Windows 8/10

LiveATC Mobile
(Mobile browser)

ATC Audio Archives
Interesting Recordings

LiveATC Forums


Home Page
About LiveATC.net
Make a Donation
Terms of Use
Privacy Policy

Canadian Air Freqs

AIRMETs/SIGMETs

FAA Airport Status
Nat'l Airspace Status
Arrival Demand Charts


Server Software By:
Icecast.org
Liquidsoap